Kunda, Estonia

11:58 AM EEST on July 26, 2016 (GMT +0300)
Ulemiste | | Change Station

Elev 131 ft 59.41 °N, 24.83 °E | Updated 8 minutes ago

Partly Cloudy
Partly Cloudy
73 °F
Feels Like 73 °F
N
8
Wind Variable Wind from NW

Today
High -- | Low -- °F
--% Chance of Precip.
Yesterday
High -- | Low -- °F
Precip. -- in
Pressure 30.04 in
Visibility 6.2 miles
Clouds Few 2000 ft
Dew Point 63 °F
Humidity 69%
Rainfall 0.00 in
Snow Depth Not available.
4:44 AM 9:54 PM
Waning Gibbous, 57% visible
METAR EETN 260850Z 32007KT 300V360 9999 FEW020 23/17 Q1017 NOSIG
Pressure 30.04 in
Visibility 6.2 miles
Clouds Few 2000 ft
Dew Point 63 °F
Humidity 69%
Rainfall 0.00 in
Snow Depth Not available.
4:44 AM 9:54 PM
Waning Gibbous, 57% visible
METAR EETN 260850Z 32007KT 300V360 9999 FEW020 23/17 Q1017 NOSIG

10-Day Weather Forecast

×

Almanac

Astronomy

Jul. 26, 2016 Rise Set
Actual Time
Civil Twilight
Nautical Twilight
Astronomical Twilight
Moon
Length of Visible Light
Length of Day
Tomorrow will be .
, % of the Moon is Illuminated

Today's Extremes

Country Highs Country Lows

Community

WunderPhotos

Upload Photos

1,927,556 photos uploaded!

WunderBlog® & News

Nearby

Air Quality

  Air Quality AQ Index Pollutant
Not available.

Snow Depth

Station Depth Elevation

Earthquake Activity

City Distance Mag. Time & Date
Minimum magnitude displayed is 2.5.

Coastal Water Temperatures

Place Temperature

Stations

Nearby Weather Stations

Station Location Temp. Windchill Dew Point Humidity Wind Precip. Elev Updated Type